createdAt,value
2023-05-02T00:00:29.491Z,2.77
2023-05-02T00:05:32.938Z,2.59
2023-05-02T00:10:36.558Z,2.70
2023-05-02T00:15:41.457Z,2.71
2023-05-02T00:20:44.644Z,2.77
2023-05-02T00:25:48.152Z,2.61
2023-05-02T00:30:53.094Z,2.69
2023-05-02T00:35:56.718Z,2.60
2023-05-02T00:41:00.131Z,2.48
2023-05-02T00:46:05.384Z,2.36
2023-05-02T00:51:12.330Z,2.43
2023-05-02T00:56:16.155Z,2.45
2023-05-02T01:01:35.464Z,2.46
2023-05-02T01:07:00.501Z,2.50
2023-05-02T01:12:08.265Z,2.47
2023-05-02T01:17:16.061Z,2.39
2023-05-02T01:22:21.242Z,2.43
2023-05-02T01:27:35.689Z,2.40
2023-05-02T01:32:42.929Z,2.38
2023-05-02T01:37:48.192Z,2.31
2023-05-02T01:42:53.309Z,2.23
2023-05-02T01:47:59.950Z,2.11
2023-05-02T01:53:05.440Z,1.97
2023-05-02T01:58:09.277Z,1.99
2023-05-02T02:03:15.527Z,2.08
2023-05-02T02:08:19.294Z,2.10
2023-05-02T02:13:29.028Z,2.20
2023-05-02T02:18:39.084Z,2.27
2023-05-02T02:23:45.059Z,2.37
2023-05-02T02:28:49.401Z,2.44
2023-05-02T02:33:54.609Z,2.47
2023-05-02T02:39:10.095Z,2.58
2023-05-02T02:44:24.712Z,2.67
2023-05-02T02:49:37.159Z,2.79
2023-05-02T02:54:47.652Z,2.95
2023-05-02T02:59:55.609Z,3.09
2023-05-02T03:05:02.651Z,3.26
2023-05-02T03:10:08.178Z,3.76
2023-05-02T03:15:24.958Z,3.84
2023-05-02T03:20:30.081Z,3.99
2023-05-02T03:25:33.590Z,4.21
2023-05-02T03:30:40.862Z,4.53
2023-05-02T03:35:45.780Z,4.95
2023-05-02T03:40:48.985Z,5.18
2023-05-02T03:45:52.415Z,7.93
2023-05-02T03:50:57.316Z,13.84
2023-05-02T03:56:00.494Z,18.98
2023-05-02T04:01:03.907Z,20.27
2023-05-02T04:06:09.090Z,21.43
2023-05-02T04:11:12.625Z,21.86
2023-05-02T04:16:16.120Z,22.56
2023-05-02T04:21:21.061Z,23.02
2023-05-02T04:26:24.520Z,23.21
2023-05-02T04:31:28.292Z,24.58
2023-05-02T04:36:34.232Z,26.10
2023-05-02T04:41:37.819Z,27.03
2023-05-02T04:46:41.485Z,28.92
2023-05-02T04:51:46.584Z,30.94
2023-05-02T04:56:50.031Z,33.18
2023-05-02T05:01:53.576Z,34.21
2023-05-02T05:06:58.575Z,36.03
2023-05-02T05:12:02.271Z,34.66
2023-05-02T05:17:05.805Z,36.78
2023-05-02T05:22:10.708Z,36.85
2023-05-02T05:27:14.216Z,35.99
2023-05-02T05:32:17.730Z,36.96
2023-05-02T05:37:23.078Z,37.44
2023-05-02T05:42:27.321Z,37.26
2023-05-02T05:47:30.908Z,39.02
2023-05-02T05:52:36.072Z,40.22
2023-05-02T05:57:39.538Z,40.57
2023-05-02T06:02:43.102Z,41.44
2023-05-02T06:07:48.122Z,41.60
2023-05-02T06:12:51.687Z,41.17
2023-05-02T06:17:55.376Z,40.21
2023-05-02T06:23:00.193Z,38.40
2023-05-02T06:28:03.703Z,40.30
2023-05-02T06:33:09.836Z,39.88
2023-05-02T06:38:14.750Z,41.50
2023-05-02T06:43:19.143Z,40.19
2023-05-02T06:48:22.944Z,40.01
2023-05-02T06:53:27.867Z,41.16
2023-05-02T06:58:31.903Z,41.00
2023-05-02T07:03:35.457Z,38.39
2023-05-02T07:08:40.350Z,39.94
2023-05-02T07:13:44.615Z,37.87
2023-05-02T07:18:48.231Z,38.83
2023-05-02T07:23:53.113Z,36.82
2023-05-02T07:28:56.571Z,35.30
2023-05-02T07:34:00.051Z,37.81
2023-05-02T07:39:05.218Z,39.11
2023-05-02T07:44:09.190Z,39.33
2023-05-02T07:49:12.790Z,38.46
2023-05-02T07:54:21.757Z,38.06
2023-05-02T07:59:25.345Z,34.87
2023-05-02T08:04:29.281Z,34.49
2023-05-02T08:09:34.332Z,32.95
2023-05-02T08:14:37.880Z,33.55
2023-05-02T08:19:41.373Z,33.05
2023-05-02T08:24:46.287Z,31.94
2023-05-02T08:29:49.892Z,28.40
2023-05-02T08:34:56.664Z,26.15
2023-05-02T08:40:02.013Z,25.38
2023-05-02T08:45:10.565Z,24.84
2023-05-02T08:50:14.156Z,24.27
2023-05-02T08:55:19.555Z,23.81
2023-05-02T09:00:23.572Z,23.38
2023-05-02T09:05:27.187Z,22.72
2023-05-02T09:10:32.709Z,21.88
2023-05-02T09:15:36.233Z,21.44
2023-05-02T09:20:42.536Z,20.49
2023-05-02T09:25:47.778Z,20.23
2023-05-02T09:30:51.236Z,20.21
2023-05-02T09:35:56.078Z,19.75
2023-05-02T09:41:03.403Z,19.02
2023-05-02T09:46:08.997Z,18.44
2023-05-02T09:51:19.136Z,18.23
2023-05-02T09:56:24.902Z,18.63
2023-05-02T10:01:29.725Z,18.41
2023-05-02T10:06:34.487Z,17.87
2023-05-02T10:11:41.312Z,17.96
2023-05-02T10:16:56.821Z,18.19
2023-05-02T10:22:01.568Z,17.91
2023-05-02T10:27:07.657Z,18.18
2023-05-02T10:32:12.955Z,18.54
2023-05-02T10:37:18.654Z,18.51
2023-05-02T10:42:24.374Z,18.63
2023-05-02T10:47:29.436Z,18.44
2023-05-02T10:52:34.529Z,18.54
2023-05-02T10:58:14.208Z,17.95
2023-05-02T11:03:56.656Z,18.17
2023-05-02T11:09:35.409Z,18.08
2023-05-02T11:14:50.987Z,18.23
2023-05-02T11:20:27.805Z,17.95
2023-05-02T11:25:39.923Z,18.10
2023-05-02T11:30:48.711Z,17.85
2023-05-02T11:35:52.307Z,18.05
2023-05-02T11:40:57.961Z,18.04
2023-05-02T11:46:03.669Z,18.03
2023-05-02T11:51:07.455Z,17.76
2023-05-02T11:56:11.191Z,17.56
2023-05-02T12:01:17.651Z,17.64
2023-05-02T12:06:21.601Z,17.17
2023-05-02T12:11:25.403Z,17.02
2023-05-02T12:16:31.112Z,17.25
2023-05-02T12:21:35.017Z,16.90
2023-05-02T12:26:38.623Z,16.61
2023-05-02T12:31:52.702Z,16.40
2023-05-02T12:36:56.347Z,16.43
2023-05-02T12:41:59.805Z,16.16
2023-05-02T12:47:04.759Z,16.55
2023-05-02T12:52:08.380Z,16.71
2023-05-02T12:57:12.187Z,17.10
2023-05-02T13:02:17.149Z,17.15
2023-05-02T13:07:20.646Z,17.04
2023-05-02T13:12:24.100Z,17.26
2023-05-02T13:17:29.140Z,17.60
2023-05-02T13:22:32.776Z,17.36
2023-05-02T13:27:36.441Z,17.32
2023-05-02T13:32:42.074Z,17.16
2023-05-02T13:37:45.691Z,17.04
2023-05-02T13:42:49.182Z,16.86
2023-05-02T13:47:54.235Z,16.84
2023-05-02T13:52:57.873Z,17.05
2023-05-02T13:58:01.687Z,17.10
2023-05-02T14:03:07.057Z,17.02
2023-05-02T14:08:10.729Z,16.62
2023-05-02T14:13:14.314Z,16.47
2023-05-02T14:18:19.290Z,16.29
2023-05-02T14:23:22.789Z,16.46
2023-05-02T14:28:27.275Z,16.39
2023-05-02T14:33:31.941Z,16.42
2023-05-02T14:38:35.553Z,16.38
2023-05-02T14:43:39.618Z,16.31
2023-05-02T14:48:44.561Z,16.07
2023-05-02T14:53:50.248Z,16.05
2023-05-02T14:58:53.917Z,16.14
2023-05-02T15:04:06.525Z,16.03
2023-05-02T15:09:12.205Z,15.89
2023-05-02T15:14:15.742Z,15.78
2023-05-02T15:19:22.700Z,15.91
2023-05-02T15:24:26.182Z,15.78
2023-05-02T15:29:29.719Z,15.76
2023-05-02T15:34:34.651Z,15.56
2023-05-02T15:39:38.337Z,15.42
2023-05-02T15:44:41.778Z,15.41
2023-05-02T15:49:46.766Z,15.30
2023-05-02T15:54:51.736Z,15.18
2023-05-02T15:59:55.453Z,15.11
2023-05-02T16:05:00.302Z,15.08
2023-05-02T16:10:04.214Z,15.16
2023-05-02T16:15:09.622Z,15.15
2023-05-02T16:20:14.507Z,14.97
2023-05-02T16:25:19.002Z,14.94
2023-05-02T16:30:24.108Z,14.87
2023-05-02T16:35:29.154Z,14.91
2023-05-02T16:40:32.678Z,14.90
2023-05-02T16:45:36.178Z,14.85
2023-05-02T16:50:41.171Z,14.81
2023-05-02T16:55:44.698Z,14.64
2023-05-02T17:00:48.232Z,14.37
2023-05-02T17:05:53.241Z,14.24
2023-05-02T17:10:57.014Z,13.98
2023-05-02T17:16:01.105Z,13.84
2023-05-02T17:21:06.773Z,13.62
2023-05-02T17:26:14.539Z,13.45
2023-05-02T17:31:18.383Z,13.25
2023-05-02T17:36:23.301Z,13.11
2023-05-02T17:41:27.297Z,12.94
2023-05-02T17:46:31.148Z,12.79
2023-05-02T17:51:36.097Z,12.76
2023-05-02T17:56:39.700Z,12.62
2023-05-02T18:01:43.351Z,12.44
2023-05-02T18:06:48.401Z,12.35
2023-05-02T18:11:52.329Z,12.26
2023-05-02T18:16:56.562Z,12.13
2023-05-02T18:22:01.597Z,11.93
2023-05-02T18:27:05.315Z,11.91
2023-05-02T18:32:08.873Z,11.86
2023-05-02T18:37:13.757Z,11.79
2023-05-02T18:42:17.242Z,11.62
2023-05-02T18:47:21.812Z,11.50
2023-05-02T18:52:26.761Z,11.34
2023-05-02T18:57:30.586Z,11.21
2023-05-02T19:02:34.183Z,11.29
2023-05-02T19:07:39.196Z,11.23
2023-05-02T19:12:43.864Z,11.22
2023-05-02T19:17:47.626Z,11.09
2023-05-02T19:23:00.236Z,11.10
2023-05-02T19:28:12.259Z,11.05
2023-05-02T19:33:15.462Z,10.99
2023-05-02T19:38:20.374Z,10.93
2023-05-02T19:43:23.884Z,10.89
2023-05-02T19:48:27.597Z,10.83
2023-05-02T19:53:32.649Z,10.74
2023-05-02T19:58:36.486Z,10.66
2023-05-02T20:03:40.109Z,10.58
2023-05-02T20:08:45.213Z,10.51
2023-05-02T20:13:48.468Z,10.38
2023-05-02T20:18:53.023Z,10.35
2023-05-02T20:23:57.841Z,10.32
2023-05-02T20:29:01.256Z,10.18
2023-05-02T20:34:04.880Z,10.16
2023-05-02T20:39:10.285Z,10.14
2023-05-02T20:44:17.170Z,10.13
2023-05-02T20:49:20.954Z,10.08
2023-05-02T20:54:25.894Z,10.02
2023-05-02T20:59:29.500Z,10.01
2023-05-02T21:04:33.186Z,9.97
2023-05-02T21:09:38.085Z,9.86
2023-05-02T21:14:41.296Z,9.89
2023-05-02T21:19:44.690Z,9.85
2023-05-02T21:24:50.358Z,9.81
2023-05-02T21:29:53.807Z,9.78
2023-05-02T21:34:57.302Z,9.77
2023-05-02T21:40:02.477Z,9.76
2023-05-02T21:45:08.129Z,9.67
2023-05-02T21:50:12.179Z,9.62
2023-05-02T21:55:17.367Z,9.63
2023-05-02T22:00:21.795Z,9.58
2023-05-02T22:05:25.256Z,9.52
2023-05-02T22:10:31.433Z,9.44
2023-05-02T22:15:34.914Z,9.46
2023-05-02T22:20:38.386Z,9.42
2023-05-02T22:25:44.997Z,9.38
2023-05-02T22:30:48.530Z,9.35
2023-05-02T22:35:51.972Z,9.39
2023-05-02T22:40:56.878Z,9.38
2023-05-02T22:46:00.224Z,9.22
2023-05-02T22:51:03.725Z,9.23
2023-05-02T22:56:09.130Z,9.18
2023-05-02T23:01:12.700Z,9.06
2023-05-02T23:06:16.265Z,9.00
2023-05-02T23:11:21.421Z,8.91
2023-05-02T23:16:24.928Z,8.88
2023-05-02T23:21:28.574Z,8.75
2023-05-02T23:26:33.511Z,8.66
2023-05-02T23:31:36.732Z,8.51
2023-05-02T23:36:40.589Z,8.50
2023-05-02T23:41:45.490Z,8.56
2023-05-02T23:46:48.764Z,8.45
2023-05-02T23:51:52.445Z,8.44
2023-05-02T23:56:58.650Z,8.45
